createdAt,value
2018-02-04T00:02:00.520Z,13.30
2018-02-04T00:04:27.969Z,13.18
2018-02-04T00:06:55.399Z,13.57
2018-02-04T00:09:23.729Z,13.73
2018-02-04T00:11:51.296Z,14.80
2018-02-04T00:14:18.862Z,14.77
2018-02-04T00:16:46.309Z,14.38
2018-02-04T00:19:13.770Z,16.42
2018-02-04T00:21:41.197Z,15.18
2018-02-04T00:24:08.634Z,14.93
2018-02-04T00:26:36.151Z,15.38
2018-02-04T00:29:03.576Z,15.23
2018-02-04T00:31:31.026Z,14.32
2018-02-04T00:33:58.465Z,15.13
2018-02-04T00:36:26.065Z,13.68
2018-02-04T00:38:53.594Z,15.50
2018-02-04T00:41:21.209Z,14.87
2018-02-04T00:43:48.638Z,16.53
2018-02-04T00:46:16.180Z,15.35
2018-02-04T00:48:43.633Z,16.23
2018-02-04T00:51:11.094Z,15.70
2018-02-04T00:53:38.526Z,14.85
2018-02-04T00:56:06.125Z,14.55
2018-02-04T00:58:33.577Z,14.60
2018-02-04T01:01:01.118Z,14.83
2018-02-04T01:03:28.621Z,15.02
2018-02-04T01:05:56.074Z,14.85
2018-02-04T01:08:23.614Z,14.87
2018-02-04T01:10:51.148Z,14.60
2018-02-04T01:13:18.612Z,14.90
2018-02-04T01:15:46.062Z,15.43
2018-02-04T01:18:13.493Z,14.87
2018-02-04T01:20:40.950Z,15.37
2018-02-04T01:23:08.454Z,15.05
2018-02-04T01:25:35.918Z,15.88
2018-02-04T01:28:03.373Z,15.95
2018-02-04T01:30:30.826Z,14.85
2018-02-04T01:32:58.389Z,15.73
2018-02-04T01:35:25.830Z,15.68
2018-02-04T01:37:53.286Z,15.15
2018-02-04T01:40:20.729Z,14.43
2018-02-04T01:42:48.166Z,16.30
2018-02-04T01:45:15.772Z,15.15
2018-02-04T01:47:43.209Z,16.05
2018-02-04T01:50:10.658Z,15.20
2018-02-04T01:52:38.129Z,15.80
2018-02-04T01:55:05.580Z,16.00
2018-02-04T01:57:33.018Z,14.15
2018-02-04T02:00:00.451Z,16.50
2018-02-04T02:02:27.977Z,16.50
2018-02-04T02:04:55.425Z,15.07
2018-02-04T02:07:22.966Z,15.10
2018-02-04T02:09:50.401Z,15.73
2018-02-04T02:12:17.837Z,15.38
2018-02-04T02:14:45.270Z,15.77
2018-02-04T02:17:13.478Z,14.73
2018-02-04T02:19:40.930Z,14.80
2018-02-04T02:22:09.134Z,15.25
2018-02-04T02:24:36.561Z,15.35
2018-02-04T02:27:03.997Z,14.00
2018-02-04T02:29:33.173Z,16.55
2018-02-04T02:32:00.625Z,14.40
2018-02-04T02:34:28.184Z,14.82
2018-02-04T02:36:55.743Z,15.27
2018-02-04T02:39:23.282Z,14.60
2018-02-04T02:41:50.725Z,14.60
2018-02-04T02:44:18.193Z,14.43
2018-02-04T02:46:45.629Z,15.02
2018-02-04T02:49:13.112Z,14.85
2018-02-04T02:51:40.545Z,15.18
2018-02-04T02:54:07.981Z,14.90
2018-02-04T02:56:35.461Z,14.47
2018-02-04T02:59:02.917Z,15.00
2018-02-04T03:01:30.394Z,14.52
2018-02-04T03:03:57.945Z,14.52
2018-02-04T03:06:25.377Z,15.90
2018-02-04T03:08:52.854Z,16.30
2018-02-04T03:11:20.315Z,15.30
2018-02-04T03:13:47.760Z,16.07
2018-02-04T03:16:15.202Z,15.27
2018-02-04T03:18:42.693Z,15.65
2018-02-04T03:21:10.143Z,15.80
2018-02-04T03:23:37.776Z,15.90
2018-02-04T03:26:05.197Z,15.75
2018-02-04T03:28:33.393Z,16.17
2018-02-04T03:31:00.877Z,15.52
2018-02-04T03:33:28.306Z,16.55
2018-02-04T03:35:55.737Z,16.05
2018-02-04T03:38:23.182Z,16.50
2018-02-04T03:40:51.417Z,16.57
2018-02-04T03:43:18.878Z,17.00
2018-02-04T03:45:46.437Z,17.60
2018-02-04T03:48:13.897Z,17.00
2018-02-04T03:50:41.433Z,17.35
2018-02-04T03:53:08.894Z,17.60
2018-02-04T03:55:36.361Z,17.25
2018-02-04T03:58:03.817Z,17.25
2018-02-04T04:00:31.253Z,16.75
2018-02-04T04:02:58.680Z,16.30
2018-02-04T04:05:26.938Z,15.65
2018-02-04T04:07:54.361Z,16.15
2018-02-04T04:10:21.798Z,15.27
2018-02-04T04:12:49.278Z,16.23
2018-02-04T04:15:16.702Z,14.87
2018-02-04T04:17:44.141Z,14.77
2018-02-04T04:20:12.361Z,14.70
2018-02-04T04:22:39.812Z,15.83
2018-02-04T04:25:07.245Z,14.70
2018-02-04T04:27:34.741Z,15.40
2018-02-04T04:30:02.179Z,13.75
2018-02-04T04:32:29.623Z,15.50
2018-02-04T04:34:57.183Z,14.63
2018-02-04T04:37:24.621Z,15.23
2018-02-04T04:39:52.121Z,14.10
2018-02-04T04:42:19.565Z,14.70
2018-02-04T04:44:47.059Z,14.30
2018-02-04T04:47:14.485Z,13.68
2018-02-04T04:49:41.919Z,15.00
2018-02-04T04:52:09.353Z,13.00
2018-02-04T04:54:36.785Z,13.77
2018-02-04T04:57:05.034Z,14.50
2018-02-04T04:59:32.462Z,14.10
2018-02-04T05:01:59.940Z,13.80
2018-02-04T05:04:27.381Z,13.85
2018-02-04T05:06:54.826Z,13.52
2018-02-04T05:09:22.270Z,14.27
2018-02-04T05:11:49.729Z,14.00
2018-02-04T05:14:17.162Z,13.30
2018-02-04T05:16:45.363Z,14.13
2018-02-04T05:19:12.857Z,14.45
2018-02-04T05:21:40.397Z,13.95
2018-02-04T05:24:07.839Z,14.52
2018-02-04T05:26:35.281Z,12.77
2018-02-04T05:29:02.717Z,14.85
2018-02-04T05:31:30.145Z,14.02
2018-02-04T05:33:57.573Z,14.23
2018-02-04T05:36:25.002Z,13.60
2018-02-04T05:38:52.441Z,13.52
2018-02-04T05:41:20.667Z,14.02
2018-02-04T05:43:48.126Z,12.95
2018-02-04T05:46:15.562Z,13.45
2018-02-04T05:48:42.989Z,12.95
2018-02-04T05:51:11.192Z,13.40
2018-02-04T05:53:38.621Z,13.15
2018-02-04T05:56:06.066Z,14.38
2018-02-04T05:58:34.297Z,13.52
2018-02-04T06:01:01.754Z,13.57
2018-02-04T06:03:29.209Z,13.43
2018-02-04T06:05:56.637Z,13.88
2018-02-04T06:08:24.121Z,13.70
2018-02-04T06:10:51.552Z,15.03
2018-02-04T06:13:19.048Z,14.77
2018-02-04T06:15:46.470Z,14.80
2018-02-04T06:18:13.906Z,14.40
2018-02-04T06:20:41.345Z,13.32
2018-02-04T06:23:10.429Z,14.00
2018-02-04T06:25:38.622Z,14.03
2018-02-04T06:28:06.826Z,15.02
2018-02-04T06:30:34.311Z,14.15
2018-02-04T06:33:01.733Z,13.43
2018-02-04T06:35:29.166Z,15.00
2018-02-04T06:37:57.369Z,14.15
2018-02-04T06:40:24.805Z,14.60
2018-02-04T06:42:52.300Z,14.50
2018-02-04T06:45:19.753Z,14.18
2018-02-04T06:47:47.211Z,14.00
2018-02-04T06:50:14.653Z,14.03
2018-02-04T06:52:42.109Z,14.43
2018-02-04T06:55:09.566Z,14.82
2018-02-04T06:57:37.045Z,14.35
2018-02-04T07:00:04.498Z,15.57
2018-02-04T07:02:31.936Z,14.95
2018-02-04T07:04:59.410Z,14.70
2018-02-04T07:07:26.836Z,15.18
2018-02-04T07:09:54.333Z,14.82
2018-02-04T07:12:21.756Z,14.63
2018-02-04T07:14:49.207Z,15.65
2018-02-04T07:17:16.629Z,15.23
2018-02-04T07:19:44.861Z,14.97
2018-02-04T07:22:12.289Z,14.82
2018-02-04T07:24:39.731Z,15.67
2018-02-04T07:27:07.912Z,13.90
2018-02-04T07:29:35.357Z,14.18
2018-02-04T07:32:02.852Z,13.65
2018-02-04T07:34:30.530Z,13.63
2018-02-04T07:36:57.997Z,13.60
2018-02-04T07:39:25.501Z,13.90
2018-02-04T07:41:53.028Z,13.00
2018-02-04T07:44:20.558Z,12.93
2018-02-04T07:46:47.995Z,11.70
2018-02-04T07:49:15.533Z,11.48
2018-02-04T07:51:43.030Z,10.83
2018-02-04T07:54:10.462Z,10.57
2018-02-04T07:56:37.977Z,10.98
2018-02-04T07:59:06.181Z,10.57
2018-02-04T08:01:33.796Z,11.02
2018-02-04T08:04:01.219Z,10.63
2018-02-04T08:06:28.664Z,9.90
2018-02-04T08:08:56.089Z,10.30
2018-02-04T08:11:24.297Z,9.90
2018-02-04T08:13:51.770Z,10.13
2018-02-04T08:16:19.306Z,8.93
2018-02-04T08:18:46.782Z,9.40
2018-02-04T08:21:14.237Z,9.05
2018-02-04T08:23:41.762Z,8.77
2018-02-04T08:26:09.269Z,9.60
2018-02-04T08:28:36.682Z,9.60
2018-02-04T08:31:04.110Z,9.07
2018-02-04T08:33:32.314Z,9.90
2018-02-04T08:35:59.746Z,9.10
2018-02-04T08:38:27.934Z,8.93
2018-02-04T08:40:55.429Z,8.70
2018-02-04T08:43:22.853Z,8.82
2018-02-04T08:45:50.306Z,8.98
2018-02-04T08:48:17.721Z,8.70
2018-02-04T08:50:45.277Z,9.07
2018-02-04T08:53:12.700Z,9.68
2018-02-04T08:55:40.133Z,9.00
2018-02-04T08:58:07.557Z,9.57
2018-02-04T09:00:34.983Z,10.23
2018-02-04T09:03:02.417Z,9.63
2018-02-04T09:05:29.853Z,9.90
2018-02-04T09:07:57.289Z,9.50
2018-02-04T09:10:25.485Z,9.60
2018-02-04T09:12:52.988Z,10.35
2018-02-04T09:15:20.415Z,9.40
2018-02-04T09:17:47.893Z,9.23
2018-02-04T09:20:15.344Z,10.40
2018-02-04T09:22:42.784Z,9.15
2018-02-04T09:25:10.201Z,9.18
2018-02-04T09:27:38.405Z,9.23
2018-02-04T09:30:05.826Z,9.30
2018-02-04T09:32:34.018Z,9.23
2018-02-04T09:35:01.447Z,9.75
2018-02-04T09:37:28.885Z,9.07
2018-02-04T09:39:56.318Z,9.43
2018-02-04T09:42:23.753Z,9.95
2018-02-04T09:44:51.238Z,9.60
2018-02-04T09:47:18.689Z,9.85
2018-02-04T09:49:46.122Z,9.68
2018-02-04T09:52:13.572Z,10.13
2018-02-04T09:54:41.068Z,9.83
2018-02-04T09:57:08.525Z,9.77
2018-02-04T09:59:35.973Z,10.27
2018-02-04T10:02:03.409Z,9.88
2018-02-04T10:04:30.882Z,9.23
2018-02-04T10:06:58.328Z,9.63
2018-02-04T10:09:25.769Z,10.38
2018-02-04T10:11:53.203Z,10.38
2018-02-04T10:14:21.439Z,11.05
2018-02-04T10:16:48.878Z,11.02
2018-02-04T10:19:16.309Z,12.65
2018-02-04T10:21:43.745Z,12.63
2018-02-04T10:24:11.262Z,12.52
2018-02-04T10:26:38.724Z,12.60
2018-02-04T10:29:06.237Z,13.27
2018-02-04T10:31:33.699Z,13.20
2018-02-04T10:34:01.196Z,13.65
2018-02-04T10:36:28.615Z,13.80
2018-02-04T10:38:56.090Z,14.13
2018-02-04T10:41:23.575Z,15.10
2018-02-04T10:43:51.209Z,14.77
2018-02-04T10:46:18.638Z,13.52
2018-02-04T10:48:46.142Z,15.50
2018-02-04T10:51:19.420Z,15.50
2018-02-04T10:53:46.899Z,16.25
2018-02-04T10:56:14.339Z,15.52
2018-02-04T10:58:41.898Z,15.25
2018-02-04T11:01:09.330Z,15.35
2018-02-04T11:03:36.901Z,15.55
2018-02-04T11:06:04.385Z,14.85
2018-02-04T11:08:31.817Z,15.00
2018-02-04T11:10:59.250Z,14.80
2018-02-04T11:13:26.688Z,14.70
2018-02-04T11:15:54.193Z,13.93
2018-02-04T11:18:21.760Z,14.40
2018-02-04T11:20:49.899Z,14.65
2018-02-04T11:23:17.318Z,15.38
2018-02-04T11:25:45.509Z,14.73
2018-02-04T11:28:13.006Z,14.95
2018-02-04T11:30:40.440Z,13.90
2018-02-04T11:33:07.869Z,14.63
2018-02-04T11:35:36.082Z,15.55
2018-02-04T11:38:03.554Z,15.30
2018-02-04T11:40:31.006Z,15.70
2018-02-04T11:42:58.437Z,15.57
2018-02-04T11:45:25.865Z,15.93
2018-02-04T11:47:54.093Z,14.85
2018-02-04T11:50:21.526Z,15.15
2018-02-04T11:52:48.957Z,16.20
2018-02-04T11:55:17.253Z,15.70
2018-02-04T11:57:44.822Z,16.12
2018-02-04T12:00:12.233Z,14.07
2018-02-04T12:02:40.465Z,14.73
2018-02-04T12:05:07.918Z,14.02
2018-02-04T12:07:35.476Z,14.45
2018-02-04T12:10:02.940Z,13.60
2018-02-04T12:12:30.456Z,13.85
2018-02-04T12:14:57.953Z,12.37
2018-02-04T12:17:25.409Z,12.77
2018-02-04T12:19:52.877Z,11.50
2018-02-04T12:22:20.318Z,10.63
2018-02-04T12:24:47.749Z,11.25
2018-02-04T12:27:15.229Z,10.07
2018-02-04T12:29:42.711Z,11.12
2018-02-04T12:32:10.101Z,10.45
2018-02-04T12:34:37.607Z,9.98
2018-02-04T12:37:05.066Z,9.90
2018-02-04T12:39:32.509Z,9.93
2018-02-04T12:41:59.976Z,9.10
2018-02-04T12:44:27.430Z,9.43
2018-02-04T12:46:54.889Z,9.07
2018-02-04T12:49:22.328Z,9.53
2018-02-04T12:51:49.778Z,10.30
2018-02-04T12:54:17.190Z,9.93
2018-02-04T12:56:44.705Z,10.97
2018-02-04T12:59:12.128Z,9.75
2018-02-04T13:01:39.582Z,9.47
2018-02-04T13:04:07.811Z,10.60
2018-02-04T13:06:35.340Z,10.02
2018-02-04T13:09:02.757Z,10.32
2018-02-04T13:11:31.081Z,10.57
2018-02-04T13:13:58.513Z,10.98
2018-02-04T13:16:25.966Z,10.10
2018-02-04T13:18:53.394Z,11.00
2018-02-04T13:21:20.818Z,9.60
2018-02-04T13:23:49.238Z,9.88
2018-02-04T13:26:17.435Z,10.38
2018-02-04T13:28:45.035Z,10.25
2018-02-04T13:31:12.610Z,9.90
2018-02-04T13:33:40.154Z,10.50
2018-02-04T13:36:07.710Z,10.37
2018-02-04T13:38:35.169Z,9.88
2018-02-04T13:41:02.626Z,10.02
2018-02-04T13:43:30.141Z,9.80
2018-02-04T13:45:58.322Z,10.10
2018-02-04T13:48:25.761Z,9.80
2018-02-04T13:50:54.127Z,10.60
2018-02-04T13:53:21.569Z,10.55
2018-02-04T13:55:49.014Z,9.77
2018-02-04T13:58:16.446Z,9.90
2018-02-04T14:00:43.917Z,10.30
2018-02-04T14:03:11.345Z,9.95
2018-02-04T14:05:38.773Z,10.32
2018-02-04T14:08:07.136Z,10.80
2018-02-04T14:10:34.562Z,11.07
2018-02-04T14:13:02.030Z,9.70
2018-02-04T14:15:29.457Z,10.02
2018-02-04T14:17:56.951Z,10.70
2018-02-04T14:20:24.587Z,11.20
2018-02-04T14:22:51.997Z,12.50
2018-02-04T14:25:20.210Z,10.80
2018-02-04T14:27:47.679Z,11.40
2018-02-04T14:30:15.140Z,10.63
2018-02-04T14:32:42.575Z,11.48
2018-02-04T14:35:10.044Z,11.90
2018-02-04T14:37:37.469Z,11.90
2018-02-04T14:40:04.913Z,10.90
2018-02-04T14:42:33.111Z,11.12
2018-02-04T14:45:00.585Z,10.85
2018-02-04T14:47:28.018Z,10.45
2018-02-04T14:49:55.615Z,10.88
2018-02-04T14:52:23.034Z,10.70
2018-02-04T14:54:50.495Z,10.90
2018-02-04T14:57:18.662Z,9.60
2018-02-04T14:59:46.230Z,10.02
2018-02-04T15:02:13.665Z,9.90
2018-02-04T15:04:41.108Z,10.75
2018-02-04T15:07:09.346Z,11.20
2018-02-04T15:09:36.773Z,10.13
2018-02-04T15:12:04.200Z,10.48
2018-02-04T15:14:31.830Z,10.38
2018-02-04T15:16:59.241Z,10.60
2018-02-04T15:19:26.694Z,10.60
2018-02-04T15:21:54.117Z,10.70
2018-02-04T15:24:22.363Z,10.65
2018-02-04T15:26:50.010Z,10.60
2018-02-04T15:29:17.457Z,10.32
2018-02-04T15:31:44.905Z,10.90
2018-02-04T15:34:12.393Z,10.70
2018-02-04T15:36:39.901Z,11.00
2018-02-04T15:39:07.340Z,10.57
2018-02-04T15:41:35.538Z,10.60
2018-02-04T15:44:02.961Z,11.85
2018-02-04T15:46:31.168Z,11.70
2018-02-04T15:48:58.608Z,11.20
2018-02-04T15:51:26.044Z,12.02
2018-02-04T15:53:53.670Z,12.48
2018-02-04T15:56:21.125Z,11.98
2018-02-04T15:58:48.582Z,12.75
2018-02-04T16:01:16.022Z,13.82
2018-02-04T16:03:43.490Z,13.50
2018-02-04T16:06:11.050Z,13.62
2018-02-04T16:08:38.480Z,13.60
2018-02-04T16:11:05.918Z,13.80
2018-02-04T16:13:34.118Z,13.43
2018-02-04T16:16:01.546Z,13.73
2018-02-04T16:18:28.975Z,13.90
2018-02-04T16:20:56.592Z,14.30
2018-02-04T16:23:24.169Z,13.82
2018-02-04T16:25:51.609Z,13.77
2018-02-04T16:28:19.044Z,14.52
2018-02-04T16:30:46.533Z,13.60
2018-02-04T16:33:13.983Z,14.77
2018-02-04T16:35:42.481Z,13.48
2018-02-04T16:38:09.921Z,14.20
2018-02-04T16:40:37.393Z,15.70
2018-02-04T16:43:04.842Z,14.65
2018-02-04T16:45:32.308Z,14.60
2018-02-04T16:47:59.738Z,15.20
2018-02-04T16:50:27.602Z,15.40
2018-02-04T16:52:55.365Z,16.05
2018-02-04T16:55:22.785Z,15.55
2018-02-04T16:57:51.009Z,15.68
2018-02-04T17:00:18.461Z,14.55
2018-02-04T17:02:45.906Z,16.10
2018-02-04T17:05:13.337Z,15.38
2018-02-04T17:07:40.837Z,15.73
2018-02-04T17:10:08.274Z,15.40
2018-02-04T17:12:35.721Z,14.50
2018-02-04T17:15:03.205Z,14.20
2018-02-04T17:17:30.642Z,14.40
2018-02-04T17:19:58.121Z,14.43
2018-02-04T17:22:25.558Z,14.55
2018-02-04T17:24:53.028Z,14.15
2018-02-04T17:27:20.503Z,14.43
2018-02-04T17:29:48.053Z,13.68
2018-02-04T17:32:15.494Z,14.15
2018-02-04T17:34:42.932Z,14.00
2018-02-04T17:37:10.370Z,14.00
2018-02-04T17:39:37.811Z,15.85
2018-02-04T17:42:06.051Z,13.07
2018-02-04T17:44:33.686Z,14.87
2018-02-04T17:47:01.134Z,14.05
2018-02-04T17:49:28.569Z,14.57
2018-02-04T17:51:56.799Z,13.80
2018-02-04T17:54:24.258Z,13.95
2018-02-04T17:56:51.713Z,14.23
2018-02-04T17:59:19.153Z,15.00
2018-02-04T18:01:46.614Z,14.90
2018-02-04T18:04:14.057Z,14.82
2018-02-04T18:06:41.506Z,13.80
2018-02-04T18:09:08.941Z,15.63
2018-02-04T18:11:37.171Z,15.60
2018-02-04T18:14:04.636Z,16.23
2018-02-04T18:16:32.090Z,15.77
2018-02-04T18:18:59.541Z,15.45
2018-02-04T18:21:27.905Z,13.98
2018-02-04T18:23:55.485Z,15.07
2018-02-04T18:26:22.918Z,15.20
2018-02-04T18:28:50.356Z,14.65
2018-02-04T18:31:17.802Z,15.13
2018-02-04T18:33:45.318Z,16.12
2018-02-04T18:36:12.759Z,14.68
2018-02-04T18:38:40.217Z,14.07
2018-02-04T18:41:07.746Z,14.60
2018-02-04T18:43:35.149Z,13.90
2018-02-04T18:46:03.351Z,14.32
2018-02-04T18:48:30.849Z,13.93
2018-02-04T18:50:58.299Z,14.50
2018-02-04T18:53:25.854Z,12.55
2018-02-04T18:55:53.269Z,12.48
2018-02-04T18:58:21.492Z,12.52
2018-02-04T19:00:49.458Z,13.52
2018-02-04T19:03:16.909Z,13.48
2018-02-04T19:05:44.384Z,11.90
2018-02-04T19:08:11.827Z,12.48
2018-02-04T19:10:39.287Z,12.30
2018-02-04T19:13:06.731Z,12.20
2018-02-04T19:15:34.160Z,11.52
2018-02-04T19:18:01.660Z,11.10
2018-02-04T19:20:29.086Z,11.35
2018-02-04T19:22:56.562Z,11.40
2018-02-04T19:25:23.997Z,11.20
2018-02-04T19:27:51.487Z,11.30
2018-02-04T19:30:18.914Z,12.02
2018-02-04T19:32:46.338Z,11.63
2018-02-04T19:35:14.659Z,12.75
2018-02-04T19:37:42.082Z,11.75
2018-02-04T19:40:09.606Z,11.40
2018-02-04T19:42:37.009Z,11.18
2018-02-04T19:45:04.494Z,12.30
2018-02-04T19:47:31.962Z,11.77
2018-02-04T19:49:59.402Z,11.60
2018-02-04T19:52:26.842Z,11.30
2018-02-04T19:54:54.262Z,12.10
2018-02-04T19:57:22.457Z,11.70
2018-02-04T19:59:49.881Z,11.32
2018-02-04T20:02:17.337Z,12.27
2018-02-04T20:04:44.871Z,11.77
2018-02-04T20:07:12.350Z,11.23
2018-02-04T20:09:39.772Z,11.80
2018-02-04T20:12:07.214Z,11.02
2018-02-04T20:14:34.654Z,11.82
2018-02-04T20:17:02.109Z,11.20
2018-02-04T20:19:29.597Z,11.70
2018-02-04T20:21:57.068Z,11.55
2018-02-04T20:24:24.512Z,12.15
2018-02-04T20:26:52.737Z,11.25
2018-02-04T20:29:21.053Z,11.30
2018-02-04T20:31:48.473Z,11.77
2018-02-04T20:34:28.579Z,11.67
2018-02-04T20:36:56.006Z,12.77
2018-02-04T20:39:23.485Z,12.23
2018-02-04T20:41:51.059Z,12.60
2018-02-04T20:44:18.609Z,11.80
2018-02-04T20:46:46.058Z,11.70
2018-02-04T20:49:13.676Z,12.02
2018-02-04T20:51:41.885Z,10.90
2018-02-04T20:54:09.321Z,11.55
2018-02-04T20:56:36.758Z,12.77
2018-02-04T20:59:04.984Z,12.00
2018-02-04T21:01:32.549Z,11.77
2018-02-04T21:04:00.043Z,12.27
2018-02-04T21:06:27.438Z,11.50
2018-02-04T21:08:54.922Z,11.40
2018-02-04T21:11:22.477Z,12.55
2018-02-04T21:13:49.934Z,12.40
2018-02-04T21:16:17.355Z,12.25
2018-02-04T21:18:44.838Z,13.55
2018-02-04T21:21:12.286Z,11.07
2018-02-04T21:23:39.735Z,11.77
2018-02-04T21:26:07.204Z,10.85
2018-02-04T21:28:34.665Z,10.98
2018-02-04T21:31:02.118Z,10.90
2018-02-04T21:33:29.561Z,11.35
2018-02-04T21:35:57.006Z,11.47
2018-02-04T21:38:24.481Z,10.60
2018-02-04T21:40:52.006Z,11.53
2018-02-04T21:43:19.511Z,10.73
2018-02-04T21:45:46.954Z,11.30
2018-02-04T21:48:14.428Z,11.60
2018-02-04T21:50:41.884Z,11.10
2018-02-04T21:53:09.318Z,10.98
2018-02-04T21:55:36.763Z,11.00
2018-02-04T21:58:04.193Z,10.70
2018-02-04T22:00:32.414Z,10.25
2018-02-04T22:02:59.853Z,9.85
2018-02-04T22:05:27.426Z,9.85
2018-02-04T22:07:54.886Z,10.98
2018-02-04T22:10:22.357Z,10.48
2018-02-04T22:12:49.773Z,10.65
2018-02-04T22:15:17.212Z,10.45
2018-02-04T22:17:44.629Z,9.20
2018-02-04T22:20:12.066Z,10.38
2018-02-04T22:22:39.486Z,9.23
2018-02-04T22:25:06.918Z,9.40
2018-02-04T22:27:34.341Z,9.85
2018-02-04T22:30:01.981Z,9.10
2018-02-04T22:32:29.413Z,8.88
2018-02-04T22:34:56.845Z,9.43
2018-02-04T22:37:25.168Z,8.45
2018-02-04T22:39:52.606Z,8.20
2018-02-04T22:42:20.026Z,8.20
2018-02-04T22:44:47.545Z,8.40
2018-02-04T22:47:15.002Z,8.20
2018-02-04T22:49:42.438Z,8.60
2018-02-04T22:52:09.875Z,8.60
2018-02-04T22:54:37.317Z,7.35
2018-02-04T22:57:04.757Z,7.28
2018-02-04T22:59:32.208Z,7.00
2018-02-04T23:01:59.645Z,6.60
2018-02-04T23:04:27.070Z,6.60
2018-02-04T23:06:54.502Z,6.85
2018-02-04T23:09:21.996Z,6.87
2018-02-04T23:11:49.443Z,6.60
2018-02-04T23:14:16.846Z,7.40
2018-02-04T23:16:44.373Z,6.28
2018-02-04T23:19:11.804Z,7.18
2018-02-04T23:21:39.229Z,6.80
2018-02-04T23:24:07.421Z,7.43
2018-02-04T23:26:34.853Z,7.75
2018-02-04T23:29:02.326Z,7.00
2018-02-04T23:31:30.542Z,7.28
2018-02-04T23:33:57.997Z,7.40
2018-02-04T23:36:25.425Z,7.57
2018-02-04T23:38:52.850Z,8.00
2018-02-04T23:41:20.366Z,7.20
2018-02-04T23:43:47.798Z,7.10
2018-02-04T23:46:15.278Z,7.00
2018-02-04T23:48:42.739Z,6.80
2018-02-04T23:51:10.197Z,6.60
2018-02-04T23:53:37.670Z,5.97
2018-02-04T23:56:05.114Z,6.07
2018-02-04T23:58:32.553Z,6.20
